Time;durP1;ratioP1;P1;durP2;ratioP2;P2;SDS_P1;SDS_P2;PMS_P1;PMS_P2;Temp;Humidity;BMP_temperature;BMP_pressure;BME280_temperature;BME280_humidity;BME280_pressure;Samples;Min_cycle;Max_cycle;Signal;HPM_P1;HPM_P2
2023/12/31 00:01:07;;;;;;;;;;;;;;;11.94;51.91;100476.38;4939767;28;128430;-65
2023/12/31 00:03:33;;;;;;;;;;;;;;;11.93;51.91;100478.28;4944665;28;101316;-64
2023/12/31 00:05:59;;;;;;;;;;;;;;;11.92;52.02;100470.47;4922114;28;98226;-64
2023/12/31 00:08:25;;;;;;;;;;;;;;;11.89;51.91;100471.81;4939873;28;98201;-65
2023/12/31 00:10:51;;;;;;;;;;;;;;;11.87;52.10;100463.19;4939800;28;128241;-65
2023/12/31 00:13:17;;;;;;;;;;;;;;;11.85;52.28;100462.63;4936927;28;98190;-65
2023/12/31 00:15:45;;;;;;;;;;;;;;;11.85;52.05;100459.13;4925751;28;127006;-64
2023/12/31 00:18:12;;;;;;;;;;;;;;;11.83;52.33;100448.63;4941926;28;98484;-64
2023/12/31 00:20:38;;;;;;;;;;;;;;;11.81;51.89;100456.13;4926344;28;102500;-65
2023/12/31 00:23:04;;;;;;;;;;;;;;;11.79;51.86;100442.94;4937577;28;128301;-65
2023/12/31 00:25:30;;;;;;;;;;;;;;;11.78;52.00;100446.69;4940466;28;112475;-64
2023/12/31 00:27:56;;;;;;;;;;;;;;;11.76;51.85;100442.66;4927701;28;98074;-64
2023/12/31 00:30:22;;;;;;;;;;;;;;;11.76;52.18;100445.38;4923850;28;127516;-65
2023/12/31 00:32:48;;;;;;;;;;;;;;;11.74;51.99;100445.63;4926654;28;98781;-65
2023/12/31 00:35:15;;;;;;;;;;;;;;;11.73;51.83;100432.41;4924987;28;117725;-63
2023/12/31 00:37:42;;;;;;;;;;;;;;;11.72;51.96;100428.09;4925489;28;98224;-63
2023/12/31 00:40:10;;;;;;;;;;;;;;;11.70;51.91;100431.06;4921952;28;105376;-63
2023/12/31 00:42:36;;;;;;;;;;;;;;;11.69;52.07;100431.34;4928685;28;98440;-63
2023/12/31 00:45:02;;;;;;;;;;;;;;;11.67;51.93;100420.84;4941321;28;99235;-63
2023/12/31 00:47:28;;;;;;;;;;;;;;;11.66;52.03;100426.50;4924686;28;98318;-63
2023/12/31 00:49:54;;;;;;;;;;;;;;;11.66;51.81;100421.09;4937877;28;98521;-65
2023/12/31 00:52:20;;;;;;;;;;;;;;;11.65;52.01;100419.47;4956964;28;100026;-67
2023/12/31 00:54:52;;;;;;;;;;;;;;;11.63;51.89;100427.88;4938601;28;98436;-63
2023/12/31 00:57:18;;;;;;;;;;;;;;;11.61;51.89;100430.00;4954933;28;98222;-63
2023/12/31 00:59:44;;;;;;;;;;;;;;;11.60;51.94;100435.69;4926112;28;98623;-63
2023/12/31 01:02:10;;;;;;;;;;;;;;;11.60;51.86;100433.00;4938946;28;105191;-65
2023/12/31 01:04:36;;;;;;;;;;;;;;;11.59;51.83;100432.16;4925740;28;126881;-65
2023/12/31 01:07:03;;;;;;;;;;;;;;;11.58;52.02;100438.66;4924822;28;98626;-63
2023/12/31 01:09:29;;;;;;;;;;;;;;;11.58;51.99;100430.56;4936371;28;98309;-63
2023/12/31 01:11:55;;;;;;;;;;;;;;;11.58;52.04;100438.66;4922619;28;98313;-65
2023/12/31 01:14:21;;;;;;;;;;;;;;;11.57;51.86;100433.53;4935299;28;128079;-65
2023/12/31 01:16:47;;;;;;;;;;;;;;;11.57;51.89;100431.66;4924715;28;114585;-65
2023/12/31 01:19:16;;;;;;;;;;;;;;;11.56;51.75;100432.75;4936879;28;115253;-63
2023/12/31 01:21:42;;;;;;;;;;;;;;;11.57;51.81;100430.84;4923550;28;98197;-63
2023/12/31 01:24:08;;;;;;;;;;;;;;;11.55;51.86;100431.94;4926318;28;98358;-65
2023/12/31 01:26:34;;;;;;;;;;;;;;;11.55;51.89;100431.09;4924385;28;113198;-63
2023/12/31 01:29:00;;;;;;;;;;;;;;;11.55;51.89;100425.69;4939564;28;98533;-65
2023/12/31 01:31:26;;;;;;;;;;;;;;;11.54;51.92;100433.00;4923899;28;98228;-66
2023/12/31 01:33:52;;;;;;;;;;;;;;;11.55;51.78;100423.00;4922871;28;99628;-63
2023/12/31 01:36:20;;;;;;;;;;;;;;;11.54;52.07;100421.41;4922654;28;98158;-65
2023/12/31 01:38:47;;;;;;;;;;;;;;;11.53;51.82;100412.50;4936990;28;98254;-63
2023/12/31 01:41:13;;;;;;;;;;;;;;;11.53;51.82;100417.09;4922890;28;97929;-65
2023/12/31 01:43:39;;;;;;;;;;;;;;;11.52;52.13;100416.28;4939774;28;98545;-65
2023/12/31 01:46:06;;;;;;;;;;;;;;;11.51;51.93;100414.66;4926206;28;98360;-64
2023/12/31 01:48:32;;;;;;;;;;;;;;;11.50;51.89;100415.72;4939863;28;98162;-65
2023/12/31 01:50:58;;;;;;;;;;;;;;;11.50;51.79;100413.03;4925064;28;104325;-66
2023/12/31 01:53:25;;;;;;;;;;;;;;;11.49;51.95;100406.03;4923997;28;98106;-63
2023/12/31 01:55:51;;;;;;;;;;;;;;;11.51;51.91;100408.44;4937004;28;97973;-65
2023/12/31 01:58:17;;;;;;;;;;;;;;;11.50;51.83;100401.44;4940019;28;101213;-64
2023/12/31 02:00:43;;;;;;;;;;;;;;;11.49;51.75;100402.53;4920650;28;98442;-65
2023/12/31 02:03:09;;;;;;;;;;;;;;;11.48;51.91;100396.31;4922720;28;127427;-63
2023/12/31 02:05:36;;;;;;;;;;;;;;;11.48;51.84;100400.91;4939198;28;98310;-65
2023/12/31 02:08:02;;;;;;;;;;;;;;;11.47;51.79;100391.19;4925899;28;98166;-65
2023/12/31 02:10:28;;;;;;;;;;;;;;;11.46;51.75;100387.66;4923410;28;98243;-63
2023/12/31 02:12:55;;;;;;;;;;;;;;;11.47;51.85;100385.78;4940838;28;98065;-65
2023/12/31 02:15:34;;;;;;;;;;;;;;;11.46;51.86;100386.88;4918291;28;100100;-65
2023/12/31 02:18:00;;;;;;;;;;;;;;;11.45;51.74;100375.28;4920066;28;98314;-65
2023/12/31 02:20:28;;;;;;;;;;;;;;;11.45;51.71;100369.06;4925759;28;98730;-65
2023/12/31 02:22:54;;;;;;;;;;;;;;;11.44;51.89;100370.97;4906856;28;119615;-65
2023/12/31 02:25:23;;;;;;;;;;;;;;;11.44;51.89;100367.47;4904612;28;98154;-65
2023/12/31 02:27:52;;;;;;;;;;;;;;;11.43;52.00;100355.81;4902718;28;106339;-63
2023/12/31 02:30:19;;;;;;;;;;;;;;;11.43;51.57;100358.53;4910210;28;97972;-63
2023/12/31 02:32:45;;;;;;;;;;;;;;;11.41;52.02;100343.72;4918203;28;98446;-63
2023/12/31 02:35:11;;;;;;;;;;;;;;;11.40;51.86;100348.31;4917296;28;100546;-64
2023/12/31 02:37:37;;;;;;;;;;;;;;;11.40;51.83;100353.69;4907194;28;98070;-65
2023/12/31 02:40:03;;;;;;;;;;;;;;;11.39;51.88;100354.75;4901297;28;128092;-65
2023/12/31 02:42:29;;;;;;;;;;;;;;;11.40;51.97;100353.69;4933755;28;98177;-63
2023/12/31 02:44:55;;;;;;;;;;;;;;;11.38;51.89;100339.66;4914970;28;98550;-65
2023/12/31 02:47:21;;;;;;;;;;;;;;;11.38;51.75;100333.47;4917990;28;129415;-65
2023/12/31 02:49:47;;;;;;;;;;;;;;;11.38;51.88;100336.16;4900380;28;114580;-65
2023/12/31 02:52:15;;;;;;;;;;;;;;;11.37;51.75;100327.25;4899842;28;128026;-63
2023/12/31 02:54:43;;;;;;;;;;;;;;;11.36;51.78;100324.81;4902153;28;99479;-63
2023/12/31 02:57:09;;;;;;;;;;;;;;;11.37;51.85;100323.75;4902713;28;98762;-65
2023/12/31 02:59:35;;;;;;;;;;;;;;;11.36;51.89;100324.81;4913702;28;98542;-63
2023/12/31 03:02:01;;;;;;;;;;;;;;;11.34;51.80;100317.00;4906035;28;98681;-63
2023/12/31 03:04:27;;;;;;;;;;;;;;;11.33;51.75;100315.41;4917037;28;98241;-63
2023/12/31 03:06:54;;;;;;;;;;;;;;;11.32;51.85;100313.78;4933040;28;99415;-65
2023/12/31 03:09:22;;;;;;;;;;;;;;;11.32;51.81;100316.50;4898419;28;102898;-65
2023/12/31 03:11:50;;;;;;;;;;;;;;;11.31;51.81;100320.25;4934102;28;98757;-63
2023/12/31 03:14:17;;;;;;;;;;;;;;;11.31;51.89;100314.84;4913055;28;98116;-63
2023/12/31 03:16:45;;;;;;;;;;;;;;;11.31;51.78;100312.16;4938694;28;116569;-63
2023/12/31 03:19:13;;;;;;;;;;;;;;;11.30;51.82;100305.97;4935914;28;101598;-64
2023/12/31 03:21:39;;;;;;;;;;;;;;;11.29;51.79;100307.03;4918771;28;98092;-63
2023/12/31 03:24:06;;;;;;;;;;;;;;;11.29;51.95;100300.84;4927590;28;98627;-63
2023/12/31 03:26:32;;;;;;;;;;;;;;;11.29;51.88;100295.44;4923022;28;98190;-65
2023/12/31 03:28:58;;;;;;;;;;;;;;;11.29;51.76;100295.44;4919523;28;127778;-65
2023/12/31 03:31:24;;;;;;;;;;;;;;;11.28;52.01;100291.94;4920036;28;128055;-65
2023/12/31 03:33:50;;;;;;;;;;;;;;;11.27;51.94;100290.31;4923781;28;114599;-63
2023/12/31 03:36:17;;;;;;;;;;;;;;;11.28;52.12;100291.94;4923293;28;98441;-65
2023/12/31 03:38:43;;;;;;;;;;;;;;;11.27;51.84;100290.31;4918898;28;98538;-65
2023/12/31 03:41:09;;;;;;;;;;;;;;;11.27;51.77;100300.31;4918104;28;98020;-65
2023/12/31 03:43:35;;;;;;;;;;;;;;;11.26;51.77;100286.00;4924429;28;98040;-65
2023/12/31 03:46:02;;;;;;;;;;;;;;;11.26;51.82;100285.19;4927033;28;124554;-63
2023/12/31 03:48:28;;;;;;;;;;;;;;;11.24;51.79;100282.78;4936180;28;98514;-65
2023/12/31 03:50:55;;;;;;;;;;;;;;;11.25;52.07;100283.59;4922184;28;98003;-63
2023/12/31 03:53:21;;;;;;;;;;;;;;;11.24;51.74;100280.09;4932603;28;101363;-65
2023/12/31 03:55:47;;;;;;;;;;;;;;;11.24;52.04;100279.28;4921377;28;130496;-65
2023/12/31 03:58:13;;;;;;;;;;;;;;;11.24;51.88;100265.81;4939607;28;126645;-64
2023/12/31 04:00:39;;;;;;;;;;;;;;;11.24;51.93;100260.41;4927022;28;98142;-63
2023/12/31 04:03:06;;;;;;;;;;;;;;;11.24;51.88;100263.09;4920803;28;98661;-63
2023/12/31 04:05:32;;;;;;;;;;;;;;;11.24;51.52;100257.69;4922002;28;98205;-65
2023/12/31 04:07:58;;;;;;;;;;;;;;;11.23;51.85;100254.16;4936963;28;130542;-65
2023/12/31 04:10:24;;;;;;;;;;;;;;;11.23;51.83;100256.06;4920804;28;99546;-65
2023/12/31 04:12:50;;;;;;;;;;;;;;;11.24;51.85;100249.59;4921952;28;98016;-65
2023/12/31 04:15:16;;;;;;;;;;;;;;;11.23;51.74;100247.97;4933386;28;120404;-65
2023/12/31 04:17:43;;;;;;;;;;;;;;;11.23;51.85;100242.56;4942607;28;100424;-63
2023/12/31 04:20:09;;;;;;;;;;;;;;;11.22;51.85;100230.97;4923772;28;98211;-63
2023/12/31 04:22:35;;;;;;;;;;;;;;;11.21;51.82;100226.69;4924382;28;101265;-63
2023/12/31 04:25:01;;;;;;;;;;;;;;;11.22;51.73;100238.28;4924495;28;98205;-63
2023/12/31 04:27:30;;;;;;;;;;;;;;;11.21;51.77;100226.69;4940852;28;98275;-63
2023/12/31 04:29:56;;;;;;;;;;;;;;;11.21;51.84;100223.97;4941477;28;98234;-63
2023/12/31 04:32:25;;;;;;;;;;;;;;;11.21;51.98;100223.97;4938162;28;98211;-63
2023/12/31 04:34:51;;;;;;;;;;;;;;;11.21;51.93;100221.28;4938895;28;98313;-65
2023/12/31 04:37:17;;;;;;;;;;;;;;;11.21;51.76;100215.09;4922696;28;97951;-63
2023/12/31 04:39:43;;;;;;;;;;;;;;;11.21;51.88;100215.09;4938632;28;98280;-65
2023/12/31 04:42:10;;;;;;;;;;;;;;;11.20;51.77;100210.75;4923087;28;98139;-63
2023/12/31 04:44:36;;;;;;;;;;;;;;;11.20;51.88;100208.88;4921623;28;99488;-63
2023/12/31 04:47:02;;;;;;;;;;;;;;;11.19;51.97;100201.84;4938222;28;99689;-63
2023/12/31 04:49:28;;;;;;;;;;;;;;;11.20;51.82;100208.88;4936324;28;98079;-65
2023/12/31 04:51:54;;;;;;;;;;;;;;;11.19;51.75;100196.47;4923135;28;98127;-63
2023/12/31 04:54:20;;;;;;;;;;;;;;;11.19;51.88;100201.84;4920795;28;98753;-65
2023/12/31 04:56:46;;;;;;;;;;;;;;;11.20;51.93;100200.78;4953137;28;101100;-63
2023/12/31 04:59:12;;;;;;;;;;;;;;;11.19;51.80;100195.66;4937241;28;98344;-63
2023/12/31 05:01:38;;;;;;;;;;;;;;;11.19;51.72;100191.06;4923743;28;98562;-65
2023/12/31 05:04:05;;;;;;;;;;;;;;;11.17;51.80;100181.66;4940296;28;126941;-63
2023/12/31 05:06:31;;;;;;;;;;;;;;;11.18;51.79;100183.25;4920261;28;98279;-65
2023/12/31 05:08:57;;;;;;;;;;;;;;;11.17;51.98;100176.25;4939953;28;98635;-65
2023/12/31 05:11:25;;;;;;;;;;;;;;;11.17;51.93;100176.25;4943302;28;99337;-65
2023/12/31 05:13:53;;;;;;;;;;;;;;;11.16;51.98;100171.91;4920311;28;98202;-64
2023/12/31 05:16:20;;;;;;;;;;;;;;;11.16;51.70;100158.44;4923333;28;100704;-63
2023/12/31 05:18:46;;;;;;;;;;;;;;;11.16;51.81;100153.03;4953194;28;99473;-63
2023/12/31 05:21:13;;;;;;;;;;;;;;;11.15;51.75;100160.34;4923631;28;99116;-63
2023/12/31 05:23:39;;;;;;;;;;;;;;;11.15;51.73;100157.63;4940040;28;99852;-63
2023/12/31 05:26:05;;;;;;;;;;;;;;;11.13;51.92;100159.81;4923802;28;98102;-65
2023/12/31 05:28:31;;;;;;;;;;;;;;;11.12;51.67;100149.28;4921781;28;98107;-65
2023/12/31 05:30:58;;;;;;;;;;;;;;;11.12;51.45;100151.97;4923914;28;98377;-63
2023/12/31 05:33:24;;;;;;;;;;;;;;;11.11;52.03;100143.09;4936083;28;98321;-63
2023/12/31 05:35:50;;;;;;;;;;;;;;;11.11;51.99;100147.69;4925185;28;98610;-63
2023/12/31 05:38:16;;;;;;;;;;;;;;;11.11;51.71;100139.59;4952643;28;98345;-63
2023/12/31 05:40:43;;;;;;;;;;;;;;;11.11;51.76;100145.78;4926199;28;98388;-65
2023/12/31 05:43:10;;;;;;;;;;;;;;;11.11;51.85;100142.28;4921916;28;98082;-66
2023/12/31 05:45:37;;;;;;;;;;;;;;;11.11;51.87;100139.59;4937467;28;98260;-67
2023/12/31 05:48:03;;;;;;;;;;;;;;;11.12;51.90;100143.88;4923416;28;98304;-66
2023/12/31 05:50:32;;;;;;;;;;;;;;;11.11;51.84;100134.19;4940413;28;99867;-64
2023/12/31 05:52:58;;;;;;;;;;;;;;;11.12;51.65;100139.31;4956769;28;98965;-65
2023/12/31 05:55:24;;;;;;;;;;;;;;;11.12;51.76;100131.22;4939529;28;107034;-63
2023/12/31 05:57:50;;;;;;;;;;;;;;;11.13;51.74;100134.72;4936745;28;98008;-63
2023/12/31 06:00:16;;;;;;;;;;;;;;;11.13;51.52;100134.72;4935819;28;99606;-63
2023/12/31 06:02:43;;;;;;;;;;;;;;;11.13;51.88;100132.03;4925089;28;107707;-63
2023/12/31 06:05:10;;;;;;;;;;;;;;;11.12;51.76;100123.16;4935575;28;100550;-63
2023/12/31 06:07:37;;;;;;;;;;;;;;;11.13;51.74;100121.25;4937714;28;100058;-65
2023/12/31 06:10:03;;;;;;;;;;;;;;;11.14;51.71;100128.25;4921572;28;98367;-63
2023/12/31 06:12:31;;;;;;;;;;;;;;;11.13;52.09;100127.44;4935716;28;98357;-63
2023/12/31 06:14:59;;;;;;;;;;;;;;;11.14;51.77;100128.25;4919577;28;98723;-63
2023/12/31 06:17:26;;;;;;;;;;;;;;;11.15;51.79;100129.84;4936541;28;98674;-65
2023/12/31 06:19:52;;;;;;;;;;;;;;;11.14;51.75;100115.56;4934436;28;98759;-65
2023/12/31 06:22:18;;;;;;;;;;;;;;;11.13;51.67;100108.56;4935301;28;99085;-65
2023/12/31 06:24:45;;;;;;;;;;;;;;;11.15;51.76;100103.69;4918894;28;100120;-63
2023/12/31 06:27:11;;;;;;;;;;;;;;;11.16;51.66;100099.09;4916123;28;100004;-63
2023/12/31 06:29:37;;;;;;;;;;;;;;;11.15;51.52;100094.78;4920656;28;98664;-65
2023/12/31 06:32:03;;;;;;;;;;;;;;;11.15;51.68;100094.78;4915252;28;121226;-64
2023/12/31 06:34:29;;;;;;;;;;;;;;;11.14;51.88;100095.88;4918123;28;98070;-64
2023/12/31 06:36:55;;;;;;;;;;;;;;;11.13;51.81;100097.78;4922855;28;99516;-65
2023/12/31 06:39:21;;;;;;;;;;;;;;;11.12;51.86;100093.47;4914785;28;111861;-65
2023/12/31 06:41:47;;;;;;;;;;;;;;;11.11;51.83;100091.84;4931807;28;128075;-65
2023/12/31 06:44:13;;;;;;;;;;;;;;;11.10;51.67;100086.72;4918444;28;101592;-65
2023/12/31 06:46:40;;;;;;;;;;;;;;;11.10;51.75;100090.22;4933470;28;98549;-63
2023/12/31 06:49:06;;;;;;;;;;;;;;;11.08;51.84;100087.00;4931851;28;98631;-63
2023/12/31 06:51:32;;;;;;;;;;;;;;;11.07;51.94;100082.69;4918825;28;98168;-65
2023/12/31 06:53:58;;;;;;;;;;;;;;;11.06;51.94;100081.88;4927746;28;101727;-63
2023/12/31 06:56:25;;;;;;;;;;;;;;;11.05;51.88;100077.59;4931770;28;100925;-64
2023/12/31 06:58:51;;;;;;;;;;;;;;;11.05;51.64;100082.19;4935260;28;98343;-63
2023/12/31 07:01:17;;;;;;;;;;;;;;;11.05;51.80;100084.88;4917477;28;98147;-63
2023/12/31 07:03:46;;;;;;;;;;;;;;;11.03;51.89;100085.13;4928231;28;99413;-65
2023/12/31 07:06:12;;;;;;;;;;;;;;;11.02;51.90;100091.63;4932364;28;106641;-65
2023/12/31 07:08:38;;;;;;;;;;;;;;;11.00;51.75;100088.41;4926191;28;98311;-63
2023/12/31 07:11:04;;;;;;;;;;;;;;;11.01;51.83;100083.81;4922923;28;99386;-65
2023/12/31 07:13:31;;;;;;;;;;;;;;;11.00;51.81;100079.50;4931919;28;99598;-65
2023/12/31 07:16:00;;;;;;;;;;;;;;;10.99;51.71;100075.19;4924999;28;98039;-63
2023/12/31 07:18:26;;;;;;;;;;;;;;;10.99;51.69;100081.38;4921510;28;98051;-63
2023/12/31 07:20:54;;;;;;;;;;;;;;;10.98;51.69;100077.09;4936679;28;98164;-63
2023/12/31 07:23:20;;;;;;;;;;;;;;;10.96;51.72;100073.03;4926160;28;98826;-65
2023/12/31 07:25:46;;;;;;;;;;;;;;;10.96;51.86;100068.47;4941045;28;121838;-66
2023/12/31 07:28:12;;;;;;;;;;;;;;;10.96;51.87;100079.25;4922505;28;112301;-65
2023/12/31 07:30:41;;;;;;;;;;;;;;;10.96;51.81;100076.53;4918919;28;131079;-64
2023/12/31 07:33:08;;;;;;;;;;;;;;;10.97;51.33;100072.78;4920630;28;98307;-63
2023/12/31 07:35:36;;;;;;;;;;;;;;;11.00;51.67;100080.31;4934194;28;98561;-63
2023/12/31 07:38:07;;;;;;;;;;;;;;;11.02;51.35;100070.03;4923919;28;99313;-63
2023/12/31 07:40:34;;;;;;;;;;;;;;;11.06;51.50;100071.09;4923367;28;98011;-63
2023/12/31 07:43:00;;;;;;;;;;;;;;;11.09;51.44;100067.03;4938769;28;98735;-65
2023/12/31 07:45:26;;;;;;;;;;;;;;;11.15;51.38;100068.59;4932020;28;107985;-63
2023/12/31 07:47:53;;;;;;;;;;;;;;;11.19;51.38;100064.25;4952034;28;98165;-63
2023/12/31 07:50:20;;;;;;;;;;;;;;;11.26;51.24;100072.84;4942915;28;98154;-65
2023/12/31 07:52:46;;;;;;;;;;;;;;;11.34;51.34;100070.66;4940791;28;98788;-65
2023/12/31 07:55:12;;;;;;;;;;;;;;;11.44;51.13;100073.28;4923447;28;111961;-65
2023/12/31 07:57:38;;;;;;;;;;;;;;;11.53;51.16;100071.56;4922478;28;98175;-65
2023/12/31 08:00:06;;;;;;;;;;;;;;;11.64;51.00;100072.28;4925042;28;130152;-64
2023/12/31 08:02:33;;;;;;;;;;;;;;;11.73;51.03;100067.88;4942338;28;98304;-63
2023/12/31 08:05:00;;;;;;;;;;;;;;;11.79;50.99;100066.75;4922911;28;98283;-63
2023/12/31 08:07:27;;;;;;;;;;;;;;;11.88;50.92;100062.38;4940070;28;99070;-63
2023/12/31 08:09:54;;;;;;;;;;;;;;;11.99;50.92;100060.38;4935998;28;98327;-63
2023/12/31 08:12:20;;;;;;;;;;;;;;;12.14;50.81;100059.38;4941469;28;100467;-63
2023/12/31 08:14:46;;;;;;;;;;;;;;;12.27;50.69;100059.50;4940995;28;99550;-65
2023/12/31 08:17:12;;;;;;;;;;;;;;;12.42;50.65;100058.53;4930044;28;98714;-63
2023/12/31 08:19:38;;;;;;;;;;;;;;;12.70;50.54;100058.72;4942342;28;100305;-65
2023/12/31 08:22:04;;;;;;;;;;;;;;;12.94;50.31;100064.06;4925028;28;129127;-66
2023/12/31 08:24:31;;;;;;;;;;;;;;;12.98;50.21;100054.28;4925014;28;130039;-65
2023/12/31 08:26:57;;;;;;;;;;;;;;;13.19;50.25;100050.16;4923819;28;97967;-65
2023/12/31 08:29:23;;;;;;;;;;;;;;;13.39;49.92;100038.22;4922100;28;100098;-63
2023/12/31 08:31:52;;;;;;;;;;;;;;;13.36;50.28;100048.84;4940567;28;98437;-65
2023/12/31 08:34:20;;;;;;;;;;;;;;;13.31;50.74;100047.00;4941652;28;98543;-63
2023/12/31 08:36:46;;;;;;;;;;;;;;;13.27;50.72;100046.81;4925577;28;98404;-65
2023/12/31 08:39:12;;;;;;;;;;;;;;;13.23;50.48;100039.56;4927286;28;99649;-63
2023/12/31 08:41:38;;;;;;;;;;;;;;;13.21;50.57;100036.34;4942468;28;98338;-63
2023/12/31 08:44:04;;;;;;;;;;;;;;;13.18;50.73;100032.31;4943759;28;99625;-65
2023/12/31 08:46:30;;;;;;;;;;;;;;;13.20;50.85;100026.59;4941324;28;98347;-65
2023/12/31 08:48:57;;;;;;;;;;;;;;;13.26;50.94;100034.38;4939906;28;128559;-64
2023/12/31 08:51:23;;;;;;;;;;;;;;;13.29;50.59;100026.78;4942188;28;98496;-63
2023/12/31 08:53:50;;;;;;;;;;;;;;;13.32;50.79;100040.50;4927924;28;98997;-67
2023/12/31 08:56:16;;;;;;;;;;;;;;;13.30;51.01;100026.47;4945974;28;98067;-63
2023/12/31 08:58:43;;;;;;;;;;;;;;;13.40;50.58;100028.19;4940394;28;98349;-63
2023/12/31 09:01:08;;;;;;;;;;;;;;;13.57;50.74;100019.53;4925292;28;98285;-63
2023/12/31 09:03:35;;;;;;;;;;;;;;;13.63;50.55;100015.63;4935888;28;117563;-63
2023/12/31 09:06:01;;;;;;;;;;;;;;;13.62;50.72;100014.81;4926192;28;99104;-64
2023/12/31 09:08:27;;;;;;;;;;;;;;;13.72;50.66;100013.84;4926811;28;98091;-65
2023/12/31 09:10:54;;;;;;;;;;;;;;;14.08;50.56;100010.47;4927628;28;98315;-65
2023/12/31 09:13:22;;;;;;;;;;;;;;;14.19;49.96;100012.66;4939124;28;98410;-65
2023/12/31 09:15:48;;;;;;;;;;;;;;;14.23;50.35;100007.44;4941392;28;98137;-65
2023/12/31 09:18:16;;;;;;;;;;;;;;;14.27;50.62;100008.44;4927437;28;98616;-64
2023/12/31 09:20:42;;;;;;;;;;;;;;;14.27;50.38;100004.94;4923973;28;99625;-65
2023/12/31 09:23:09;;;;;;;;;;;;;;;14.27;50.74;100007.66;4925733;28;119986;-64
2023/12/31 09:25:35;;;;;;;;;;;;;;;14.37;50.39;100000.06;4926634;28;99005;-63
2023/12/31 09:28:01;;;;;;;;;;;;;;;14.51;50.17;99999.31;4937103;28;98408;-64
2023/12/31 09:30:29;;;;;;;;;;;;;;;14.51;50.34;99986.53;4922488;28;98623;-63
2023/12/31 09:32:54;;;;;;;;;;;;;;;14.56;50.55;99991.03;4921324;28;98049;-65
2023/12/31 09:35:21;;;;;;;;;;;;;;;14.63;50.54;99986.81;4927607;28;102333;-63
2023/12/31 09:37:47;;;;;;;;;;;;;;;14.66;50.38;99980.78;4938963;28;99844;-63
2023/12/31 09:40:13;;;;;;;;;;;;;;;14.75;50.37;99967.28;4939219;28;103578;-66
2023/12/31 09:42:47;;;;;;;;;;;;;;;14.92;50.40;99970.13;4955357;28;120506;-64
2023/12/31 09:45:14;;;;;;;;;;;;;;;15.08;50.14;99969.75;4956827;28;98258;-65
2023/12/31 09:47:40;;;;;;;;;;;;;;;15.18;50.29;99964.88;4957747;28;100383;-65
2023/12/31 09:50:07;;;;;;;;;;;;;;;15.22;50.10;99962.34;4939070;28;98221;-64
2023/12/31 09:52:33;;;;;;;;;;;;;;;15.20;50.28;99950.97;4924196;28;98093;-65
2023/12/31 09:55:00;;;;;;;;;;;;;;;15.21;50.47;99952.63;4924207;28;98202;-65
2023/12/31 09:57:26;;;;;;;;;;;;;;;15.31;50.34;99944.19;4937333;28;108540;-65
2023/12/31 09:59:53;;;;;;;;;;;;;;;15.46;50.15;99943.78;4925911;28;98238;-65
2023/12/31 10:02:23;;;;;;;;;;;;;;;15.59;50.15;99931.22;4940351;28;98098;-64
2023/12/31 10:04:50;;;;;;;;;;;;;;;15.68;50.08;99937.53;4921432;28;98367;-66
2023/12/31 10:07:17;;;;;;;;;;;;;;;15.72;50.14;99932.28;4939327;28;103368;-64
2023/12/31 10:09:43;;;;;;;;;;;;;;;15.74;50.00;99923.81;4939765;28;98576;-66
2023/12/31 10:12:10;;;;;;;;;;;;;;;15.76;50.36;99922.38;4922878;28;98315;-64
2023/12/31 10:14:36;;;;;;;;;;;;;;;15.80;50.18;99920.63;4919434;28;98317;-65
2023/12/31 10:17:09;;;;;;;;;;;;;;;15.81;50.27;99905.94;4925132;28;105065;-65
2023/12/31 10:19:35;;;;;;;;;;;;;;;15.84;50.27;99902.59;4925058;28;99827;-64
2023/12/31 10:22:05;;;;;;;;;;;;;;;15.88;50.23;99900.03;4919475;28;101393;-63
2023/12/31 10:24:31;;;;;;;;;;;;;;;15.88;50.23;99889.97;4922121;28;98074;-65
2023/12/31 10:26:58;;;;;;;;;;;;;;;15.92;50.26;99887.41;4937402;28;98131;-65
2023/12/31 10:29:24;;;;;;;;;;;;;;;15.95;50.23;99882.16;4924007;28;115472;-63
2023/12/31 10:31:51;;;;;;;;;;;;;;;15.98;50.23;99875.25;4938845;28;98170;-63
2023/12/31 10:34:17;;;;;;;;;;;;;;;16.01;50.29;99871.91;4926523;28;98660;-64
2023/12/31 10:36:46;;;;;;;;;;;;;;;16.03;50.14;99863.44;4920953;28;98599;-65
2023/12/31 10:39:27;;;;;;;;;;;;;;;16.07;50.39;99859.78;4942446;28;99220;-65
2023/12/31 10:41:56;;;;;;;;;;;;;;;16.17;50.28;99848.59;4925353;28;98217;-65
2023/12/31 10:44:22;;;;;;;;;;;;;;;16.27;50.36;99847.47;4936305;28;102752;-63
2023/12/31 10:46:48;;;;;;;;;;;;;;;16.33;50.28;99843.47;4940079;28;99274;-64
2023/12/31 10:49:14;;;;;;;;;;;;;;;16.38;50.43;99840.56;4952091;28;119013;-65
2023/12/31 10:51:41;;;;;;;;;;;;;;;16.40;50.51;99843.78;4950817;28;131105;-65
2023/12/31 10:54:10;;;;;;;;;;;;;;;16.45;50.40;99834.66;4923568;28;98202;-63
2023/12/31 10:56:36;;;;;;;;;;;;;;;16.49;50.54;99837.53;4923242;28;101364;-66
2023/12/31 10:59:02;;;;;;;;;;;;;;;16.54;50.47;99831.94;4921748;28;101103;-63
2023/12/31 11:01:28;;;;;;;;;;;;;;;16.61;50.43;99829.50;4955469;28;100123;-64
2023/12/31 11:03:56;;;;;;;;;;;;;;;16.62;50.55;99821.06;4937992;28;98226;-65
2023/12/31 11:06:23;;;;;;;;;;;;;;;16.64;50.47;99818.00;4939976;28;98119;-64
2023/12/31 11:08:50;;;;;;;;;;;;;;;16.63;50.53;99811.75;4937697;28;98619;-64
2023/12/31 11:11:18;;;;;;;;;;;;;;;16.64;50.88;99815.28;4920630;28;100002;-64
2023/12/31 11:13:49;;;;;;;;;;;;;;;16.62;50.58;99815.63;4928571;28;98068;-64
2023/12/31 11:16:37;;;;;;;;;;;;;;;16.62;50.56;99812.06;4927450;28;98557;-65
2023/12/31 11:19:21;;;;;;;;;;;;;;;16.61;50.65;99808.56;4942823;28;99391;-65
2023/12/31 11:22:16;;;;;;;;;;;;;;;16.61;50.70;99797.66;4958040;28;99908;-64
2023/12/31 11:24:42;;;;;;;;;;;;;;;16.61;50.72;99792.22;4959122;27;98239;-64
2023/12/31 11:27:17;;;;;;;;;;;;;;;16.62;50.59;99784.84;4939086;28;98260;-64
2023/12/31 11:29:49;;;;;;;;;;;;;;;16.63;50.61;99778.31;4937928;28;98386;-64
2023/12/31 11:32:21;;;;;;;;;;;;;;;16.65;50.70;99770.63;4953329;28;107341;-65
2023/12/31 11:34:53;;;;;;;;;;;;;;;16.65;50.72;99755.09;4938543;28;98345;-65
2023/12/31 11:37:23;;;;;;;;;;;;;;;16.66;50.75;99750.44;4939661;28;99492;-65
2023/12/31 11:39:52;;;;;;;;;;;;;;;16.63;50.99;99735.59;4924920;28;99502;-65
2023/12/31 11:42:19;;;;;;;;;;;;;;;16.62;50.77;99736.72;4924880;28;97743;-64
2023/12/31 11:44:46;;;;;;;;;;;;;;;16.59;50.76;99729.19;4940667;28;98243;-65
2023/12/31 11:47:22;;;;;;;;;;;;;;;16.56;50.66;99723.59;4925568;28;99771;-65
2023/12/31 11:49:57;;;;;;;;;;;;;;;16.55;50.68;99725.53;4943407;28;98172;-64
2023/12/31 11:52:38;;;;;;;;;;;;;;;16.54;50.72;99720.38;4955304;28;98482;-65
2023/12/31 11:55:04;;;;;;;;;;;;;;;16.52;50.87;99717.22;4955711;28;98719;-64
2023/12/31 11:57:31;;;;;;;;;;;;;;;16.52;50.86;99714.50;4924724;28;98205;-63
2023/12/31 11:59:57;;;;;;;;;;;;;;;16.49;50.98;99715.13;4937660;28;98886;-65
2023/12/31 12:02:24;;;;;;;;;;;;;;;16.44;50.82;99706.03;4937926;28;98514;-64
2023/12/31 12:04:50;;;;;;;;;;;;;;;16.41;50.91;99705.88;4936851;28;98112;-65
2023/12/31 12:07:16;;;;;;;;;;;;;;;16.34;50.94;99689.25;4935875;28;125019;-65
2023/12/31 12:09:42;;;;;;;;;;;;;;;16.28;51.12;99688.63;4924525;28;98192;-64
2023/12/31 12:12:09;;;;;;;;;;;;;;;16.18;51.06;99678.09;4936887;28;98748;-63
2023/12/31 12:14:35;;;;;;;;;;;;;;;16.09;51.31;99680.03;4924886;28;98279;-64
2023/12/31 12:17:03;;;;;;;;;;;;;;;16.00;51.21;99677.34;4920322;28;129783;-65
2023/12/31 12:19:31;;;;;;;;;;;;;;;15.90;51.37;99683.09;4924416;28;98654;-65
2023/12/31 12:21:57;;;;;;;;;;;;;;;15.80;51.36;99673.38;4918720;28;98317;-66
2023/12/31 12:24:23;;;;;;;;;;;;;;;15.74;51.42;99661.06;4926353;28;98346;-65
2023/12/31 12:26:50;;;;;;;;;;;;;;;15.67;51.36;99650.66;4957979;28;98476;-64
2023/12/31 12:29:16;;;;;;;;;;;;;;;15.63;51.52;99660.53;4924416;28;99876;-65
2023/12/31 12:31:47;;;;;;;;;;;;;;;15.60;51.34;99647.63;4920883;28;98956;-65
2023/12/31 12:34:14;;;;;;;;;;;;;;;15.60;51.28;99642.19;4932188;28;98068;-64